Time;durP1;ratioP1;P1;durP2;ratioP2;P2;SDS_P1;SDS_P2;PMS_P1;PMS_P2;Temp;Humidity;BMP_temperature;BMP_pressure;BME280_temperature;BME280_humidity;BME280_pressure;Samples;Min_cycle;Max_cycle;Signal;HPM_P1;HPM_P2
2022/09/21 00:00:33;;;;;;;4.63;2.60;;;6.50;99.90;;;;;;6274640;22;20629;-84
2022/09/21 00:02:59;;;;;;;4.40;2.90;;;6.50;99.90;;;;;;6277254;22;20148;-83
2022/09/21 00:05:25;;;;;;;6.97;3.43;;;6.40;99.90;;;;;;6278058;22;20378;-83
2022/09/21 00:07:51;;;;;;;8.30;3.03;;;6.40;99.90;;;;;;6279598;22;20394;-83
2022/09/21 00:10:18;;;;;;;4.78;2.78;;;6.40;99.90;;;;;;6278828;22;20375;-86
2022/09/21 00:12:46;;;;;;;4.88;3.08;;;6.40;99.90;;;;;;6277231;22;20144;-84
2022/09/21 00:15:13;;;;;;;14.05;4.18;;;6.40;99.90;;;;;;6277431;22;20144;-84
2022/09/21 00:17:39;;;;;;;4.95;3.08;;;6.40;99.90;;;;;;6278553;22;20226;-85
2022/09/21 00:20:05;;;;;;;5.10;3.30;;;6.40;99.90;;;;;;6279528;22;20159;-83
2022/09/21 00:22:34;;;;;;;4.05;3.13;;;6.30;99.90;;;;;;6277614;22;20155;-84
2022/09/21 00:25:02;;;;;;;6.07;2.60;;;6.30;99.90;;;;;;6274691;22;20151;-84
2022/09/21 00:27:29;;;;;;;5.88;3.67;;;6.30;99.90;;;;;;6279911;22;20151;-84
2022/09/21 00:30:02;;;;;;;4.18;2.97;;;6.20;99.90;;;;;;6277760;22;20171;-84
2022/09/21 00:32:30;;;;;;;9.32;3.72;;;6.20;99.90;;;;;;6277838;22;20574;-84
2022/09/21 00:34:56;;;;;;;5.13;3.75;;;6.20;99.90;;;;;;6277502;22;20243;-86
2022/09/21 00:37:23;;;;;;;3.42;3.13;;;6.20;99.90;;;;;;6279305;22;20159;-86
2022/09/21 00:39:48;;;;;;;5.32;3.22;;;6.20;99.90;;;;;;6276381;22;20215;-84
2022/09/21 00:42:27;;;;;;;6.97;3.63;;;6.20;99.90;;;;;;6277732;22;20562;-83
2022/09/21 00:44:53;;;;;;;6.38;3.15;;;6.20;99.90;;;;;;6274554;22;20140;-82
2022/09/21 00:47:25;;;;;;;11.85;6.55;;;6.10;99.90;;;;;;6278000;22;20148;-82
2022/09/21 00:49:54;;;;;;;11.35;6.78;;;6.10;99.90;;;;;;6278471;22;20247;-84
2022/09/21 00:52:22;;;;;;;8.70;5.18;;;6.10;99.90;;;;;;6279632;22;20154;-83
2022/09/21 00:54:59;;;;;;;6.20;3.40;;;6.10;99.90;;;;;;6278365;22;20663;-83
2022/09/21 00:57:29;;;;;;;7.05;3.05;;;6.10;99.90;;;;;;6277134;22;20164;-83
2022/09/21 00:59:57;;;;;;;5.22;3.28;;;6.00;99.90;;;;;;6274945;22;20502;-83
2022/09/21 01:02:23;;;;;;;7.53;3.47;;;5.90;99.90;;;;;;6271241;22;20151;-82
2022/09/21 01:04:52;;;;;;;6.87;3.87;;;5.80;99.90;;;;;;6274809;22;20168;-83
2022/09/21 01:07:22;;;;;;;5.05;3.25;;;5.80;99.90;;;;;;6274490;22;20390;-84
2022/09/21 01:09:52;;;;;;;6.50;3.25;;;5.90;99.90;;;;;;6275148;22;20172;-84
2022/09/21 01:12:37;;;;;;;5.70;4.25;;;5.90;99.90;;;;;;6274891;22;20156;-84
2022/09/21 01:15:08;;;;;;;5.10;3.13;;;5.90;99.90;;;;;;6272358;22;20856;-85
2022/09/21 01:17:40;;;;;;;10.55;4.07;;;5.80;99.90;;;;;;6271653;22;20218;-85
2022/09/21 01:20:43;;;;;;;10.38;4.10;;;5.80;99.90;;;;;;6272297;22;20186;-84
2022/09/21 01:23:20;;;;;;;6.80;3.20;;;5.70;99.90;;;;;;6272340;22;20242;-85
2022/09/21 01:25:58;;;;;;;8.45;4.18;;;5.70;99.90;;;;;;6274764;22;20159;-85
2022/09/21 01:28:29;;;;;;;8.23;3.30;;;5.80;99.90;;;;;;6273086;22;20209;-85
2022/09/21 01:30:59;;;;;;;18.13;4.65;;;5.80;99.90;;;;;;6270175;22;20132;-84
2022/09/21 01:33:31;;;;;;;16.60;6.35;;;5.90;99.90;;;;;;6271622;22;20132;-85
2022/09/21 01:36:02;;;;;;;11.43;4.13;;;6.00;99.90;;;;;;6269267;22;20464;-84
2022/09/21 01:38:33;;;;;;;6.75;3.90;;;6.00;99.90;;;;;;6273607;22;20180;-84
2022/09/21 01:41:02;;;;;;;12.10;3.90;;;5.90;99.90;;;;;;6273037;22;20167;-85
2022/09/21 01:43:39;;;;;;;9.90;3.53;;;5.80;99.90;;;;;;6276403;22;20136;-85
2022/09/21 01:46:08;;;;;;;8.07;3.28;;;5.80;99.90;;;;;;6276134;22;20177;-83
2022/09/21 01:48:39;;;;;;;10.32;3.55;;;5.80;99.90;;;;;;6275066;22;20176;-85
2022/09/21 01:51:08;;;;;;;6.00;3.72;;;5.80;99.90;;;;;;6273679;22;20211;-86
2022/09/21 01:53:52;;;;;;;7.60;3.85;;;5.80;99.90;;;;;;6268649;22;20151;-85
2022/09/21 01:56:31;;;;;;;4.20;3.70;;;5.80;99.90;;;;;;6277849;22;20649;-85
2022/09/21 01:59:14;;;;;;;8.82;3.95;;;5.80;99.90;;;;;;6275340;22;20225;-85
2022/09/21 02:01:54;;;;;;;7.97;3.78;;;5.80;99.90;;;;;;6278246;22;20139;-83
2022/09/21 02:04:20;;;;;;;13.02;4.00;;;5.80;99.90;;;;;;6280473;22;20142;-84
2022/09/21 02:06:47;;;;;;;8.53;4.00;;;5.70;99.90;;;;;;6279148;22;20226;-83
2022/09/21 02:09:13;;;;;;;6.97;3.67;;;5.70;99.90;;;;;;6278904;22;20231;-85
2022/09/21 02:11:42;;;;;;;7.30;3.90;;;5.60;99.90;;;;;;6279944;22;20182;-84
2022/09/21 02:14:15;;;;;;;5.63;4.15;;;5.60;99.90;;;;;;6281117;22;20702;-84
2022/09/21 02:16:48;;;;;;;6.43;3.85;;;5.60;99.90;;;;;;6280828;22;20167;-84
2022/09/21 02:19:53;;;;;;;8.95;5.38;;;5.70;99.90;;;;;;6281243;22;20160;-83
2022/09/21 02:22:40;;;;;;;6.20;4.75;;;5.70;99.90;;;;;;6219909;22;20202;-84
2022/09/21 02:25:17;;;;;;;7.13;5.22;;;5.80;99.90;;;;;;6281463;22;20559;-84
2022/09/21 02:28:00;;;;;;;7.25;4.47;;;5.70;99.90;;;;;;6280070;22;20143;-84
2022/09/21 02:30:26;;;;;;;11.77;4.55;;;5.70;99.90;;;;;;6281037;22;20136;-84
2022/09/21 02:33:04;;;;;;;7.25;3.80;;;5.70;99.90;;;;;;6279710;22;20148;-83
2022/09/21 02:35:48;;;;;;;9.07;3.85;;;5.70;99.90;;;;;;6279862;22;20634;-84
2022/09/21 02:38:19;;;;;;;5.25;3.53;;;5.60;99.90;;;;;;6278633;22;20187;-84
2022/09/21 02:41:04;;;;;;;5.00;3.72;;;5.70;99.90;;;;;;6280504;22;20143;-83
2022/09/21 02:43:36;;;;;;;11.35;4.97;;;5.70;99.90;;;;;;6283241;22;20472;-84
2022/09/21 02:46:08;;;;;;;8.23;3.92;;;5.60;99.90;;;;;;6283509;22;20151;-83
2022/09/21 02:48:47;;;;;;;8.15;4.10;;;5.40;99.90;;;;;;6285210;22;20175;-84
2022/09/21 02:51:21;;;;;;;8.55;4.80;;;5.40;99.90;;;;;;6285147;22;20132;-83
2022/09/21 02:53:49;;;;;;;10.32;4.78;;;5.30;99.90;;;;;;6284848;22;20138;-86
2022/09/21 02:56:15;;;;;;;12.65;5.38;;;5.30;99.90;;;;;;6282854;22;20199;-85
2022/09/21 02:58:49;;;;;;;8.32;4.57;;;5.30;99.90;;;;;;6283099;22;20223;-85
2022/09/21 03:01:16;;;;;;;4.60;3.85;;;5.30;99.90;;;;;;6285740;22;20132;-85
2022/09/21 03:03:41;;;;;;;9.05;5.20;;;5.30;99.90;;;;;;6282722;22;20203;-86
2022/09/21 03:06:07;;;;;;;13.13;5.10;;;5.20;99.90;;;;;;6283211;22;20155;-86
2022/09/21 03:08:33;;;;;;;9.37;4.80;;;5.20;99.90;;;;;;6285272;22;20637;-87
2022/09/21 03:10:58;;;;;;;8.00;3.80;;;5.30;99.90;;;;;;6283763;22;20147;-87
2022/09/21 03:13:24;;;;;;;11.23;4.33;;;5.20;99.90;;;;;;6284363;22;20175;-86
2022/09/21 03:15:59;;;;;;;13.17;4.77;;;5.10;99.90;;;;;;6283947;22;20162;-85
2022/09/21 03:18:25;;;;;;;10.50;4.28;;;5.20;99.90;;;;;;6285239;22;20159;-86
2022/09/21 03:20:50;;;;;;;10.60;5.20;;;5.20;99.90;;;;;;6285965;22;20140;-85
2022/09/21 03:23:16;;;;;;;10.73;5.43;;;5.20;99.90;;;;;;6282941;22;20148;-85
2022/09/21 03:25:45;;;;;;;11.40;6.17;;;5.20;99.90;;;;;;6283930;22;20136;-85
2022/09/21 03:28:12;;;;;;;14.73;6.80;;;5.30;99.90;;;;;;6283573;22;20172;-85
2022/09/21 03:30:38;;;;;;;13.10;7.50;;;5.30;99.90;;;;;;6285101;22;20209;-85
2022/09/21 03:33:04;;;;;;;12.10;7.10;;;5.40;99.90;;;;;;6284295;22;20244;-85
2022/09/21 03:35:32;;;;;;;15.80;8.07;;;5.50;99.90;;;;;;6283825;22;20152;-86
2022/09/21 03:37:59;;;;;;;10.93;6.70;;;5.40;99.90;;;;;;6285229;22;20191;-84
2022/09/21 03:40:26;;;;;;;12.30;6.32;;;5.40;99.90;;;;;;6283369;22;20144;-84
2022/09/21 03:45:22;;;;;;;12.95;5.57;;;5.40;99.90;;;;;;6271674;22;20972;-86
2022/09/21 03:47:48;;;;;;;9.93;5.70;;;5.30;99.90;;;;;;6270001;22;20156;-87
2022/09/21 03:50:14;;;;;;;9.18;6.00;;;;;;;;;;6269872;22;20175;-87
2022/09/21 03:52:40;;;;;;;9.77;6.18;;;5.30;99.90;;;;;;6271656;22;20449;-87
2022/09/21 03:55:07;;;;;;;12.77;6.17;;;5.30;99.90;;;;;;6270820;22;20167;-86
2022/09/21 03:57:34;;;;;;;6.80;4.63;;;5.30;99.90;;;;;;6267738;22;20180;-86
2022/09/21 04:00:05;;;;;;;13.82;4.75;;;5.20;99.90;;;;;;6275827;22;20175;-86
2022/09/21 04:02:31;;;;;;;10.13;5.10;;;5.20;99.90;;;;;;6288390;22;20551;-85
2022/09/21 04:04:56;;;;;;;7.13;4.43;;;5.20;99.90;;;;;;6275673;22;20199;-86
2022/09/21 04:07:22;;;;;;;11.80;6.43;;;5.10;99.90;;;;;;6274434;22;20152;-86
2022/09/21 04:09:48;;;;;;;6.50;4.77;;;;;;;;;;6274348;22;20171;-86
2022/09/21 04:12:14;;;;;;;11.27;4.73;;;;;;;;;;6274932;22;20158;-86
2022/09/21 04:14:40;;;;;;;6.50;4.27;;;;;;;;;;6274991;22;20375;-87
2022/09/21 04:17:07;;;;;;;7.50;5.30;;;5.10;99.90;;;;;;6269833;22;20418;-86
2022/09/21 04:19:33;;;;;;;11.07;5.75;;;4.90;99.90;;;;;;6267190;22;20398;-88
2022/09/21 04:21:59;;;;;;;9.10;5.33;;;;;;;;;;6268532;22;20907;-87
2022/09/21 04:24:26;;;;;;;14.70;5.32;;;4.90;99.90;;;;;;6272987;22;20170;-86
2022/09/21 04:26:51;;;;;;;9.48;4.80;;;4.90;99.90;;;;;;6275762;22;20171;-86
2022/09/21 04:29:17;;;;;;;10.27;5.43;;;4.80;99.90;;;;;;6274292;22;20179;-87
2022/09/21 04:31:43;;;;;;;9.25;6.70;;;4.80;99.90;;;;;;6267075;22;20156;-85
2022/09/21 04:34:12;;;;;;;14.47;6.67;;;4.80;99.90;;;;;;6270460;22;20174;-85
2022/09/21 04:36:38;;;;;;;13.45;7.53;;;4.80;99.90;;;;;;6270588;22;20278;-85
2022/09/21 04:39:04;;;;;;;9.70;5.50;;;4.80;99.90;;;;;;6279426;22;20171;-86
2022/09/21 04:41:30;;;;;;;13.27;7.10;;;6.00;99.90;;;;;;6282145;22;20434;-85
2022/09/21 04:43:56;;;;;;;9.77;7.20;;;;;;;;;;6279864;22;20178;-86
2022/09/21 04:46:22;;;;;;;13.00;6.10;;;4.90;99.90;;;;;;6279582;22;20151;-86
2022/09/21 04:48:48;;;;;;;11.37;5.93;;;4.90;99.90;;;;;;6278630;22;20433;-87
2022/09/21 04:51:15;;;;;;;15.82;6.20;;;4.80;99.90;;;;;;6276466;22;20150;-85
2022/09/21 04:53:42;;;;;;;8.18;5.75;;;4.80;99.90;;;;;;6278517;22;20598;-85
2022/09/21 04:56:11;;;;;;;9.95;5.80;;;4.60;99.90;;;;;;6279403;22;20183;-87
2022/09/21 04:58:37;;;;;;;9.15;6.35;;;5.60;99.90;;;;;;6281107;22;20170;-86
2022/09/21 05:01:05;;;;;;;20.50;7.30;;;;;;;;;;6278758;22;20168;-85
2022/09/21 05:03:31;;;;;;;21.38;8.23;;;4.80;99.90;;;;;;6280612;22;20167;-86
2022/09/21 05:05:57;;;;;;;8.55;4.78;;;4.80;99.90;;;;;;6279079;22;20147;-86
2022/09/21 05:11:11;;;;;;;14.00;5.35;;;4.70;99.90;;;;;;6283367;22;20385;-85
2022/09/21 05:13:38;;;;;;;8.93;4.72;;;4.50;99.90;;;;;;6282097;22;20171;-86
2022/09/21 05:16:04;;;;;;;11.25;5.50;;;4.40;99.90;;;;;;6280698;22;20162;-85
2022/09/21 05:18:30;;;;;;;12.83;6.83;;;;;;;;;;6292087;22;20140;-85
2022/09/21 05:20:57;;;;;;;22.55;8.20;;;4.50;99.90;;;;;;6291956;22;20408;-85
2022/09/21 05:23:24;;;;;;;13.10;7.05;;;4.50;99.90;;;;;;6298441;22;20162;-85
2022/09/21 05:25:50;;;;;;;13.00;6.65;;;4.60;99.90;;;;;;6286885;22;20238;-86
2022/09/21 05:28:18;;;;;;;15.40;7.53;;;5.40;99.90;;;;;;6286911;22;20209;-85
2022/09/21 05:30:51;;;;;;;16.92;7.75;;;5.40;99.90;;;;;;6285950;22;20386;-86
2022/09/21 05:33:19;;;;;;;17.92;8.07;;;7.60;99.90;;;;;;6282105;22;20167;-85
2022/09/21 05:36:17;;;;;;;16.02;6.85;;;7.30;99.90;;;;;;6280555;22;20152;-87
2022/09/21 05:38:43;;;;;;;38.13;9.10;;;7.90;99.90;;;;;;6280831;22;20178;-86
2022/09/21 05:41:08;;;;;;;111.13;14.53;;;8.30;99.90;;;;;;6280038;22;20164;-86
2022/09/21 05:43:34;;;;;;;168.37;13.17;;;;;;;;;;6276799;22;20406;-85
2022/09/21 05:46:11;;;;;;;34.88;8.82;;;8.60;99.90;;;;;;6281944;22;20403;-84
2022/09/21 05:48:41;;;;;;;137.65;13.75;;;8.50;99.90;;;;;;6277484;22;20136;-85
2022/09/21 05:51:23;;;;;;;51.17;7.68;;;9.00;99.90;;;;;;6276893;22;20171;-86
2022/09/21 05:54:12;;;;;;;243.30;17.20;;;9.20;99.90;;;;;;6278210;22;20136;-85
2022/09/21 05:56:59;;;;;;;263.90;15.07;;;8.40;99.90;;;;;;6278735;22;20179;-85
2022/09/21 05:59:30;;;;;;;264.23;16.80;;;8.80;99.90;;;;;;6276700;22;20935;-85
2022/09/21 06:02:09;;;;;;;84.47;8.30;;;8.60;99.90;;;;;;6279691;22;20152;-86
2022/09/21 06:04:35;;;;;;;332.13;19.33;;;8.10;99.90;;;;;;6280512;22;20201;-84
2022/09/21 06:07:01;;;;;;;157.03;8.83;;;;;;;;;;6275689;22;20212;-85
2022/09/21 06:09:27;;;;;;;190.30;13.17;;;;;;;;;;6277214;22;20394;-85
2022/09/21 06:11:53;;;;;;;77.90;7.93;;;;;;;;;;6278235;22;20432;-85
2022/09/21 06:14:23;;;;;;;147.87;9.47;;;;;;;;;;6276198;22;20698;-85
2022/09/21 06:16:49;;;;;;;120.10;8.18;;;;;;;;;;6277565;22;20483;-85
2022/09/21 06:19:15;;;;;;;156.18;11.07;;;;;;;;;;6274284;22;20183;-85
2022/09/21 06:21:41;;;;;;;109.53;9.00;;;;;;;;;;6275105;22;20706;-86
2022/09/21 06:24:07;;;;;;;109.60;8.30;;;;;;;;;;6277805;22;20880;-85
2022/09/21 06:26:33;;;;;;;52.72;5.18;;;;;;;;;;6278392;22;20390;-86
2022/09/21 06:28:59;;;;;;;98.97;8.40;;;;;;;;;;6277244;22;20176;-86
2022/09/21 06:31:26;;;;;;;56.58;6.82;;;11.20;99.90;;;;;;6276667;22;20370;-85
2022/09/21 06:33:52;;;;;;;44.70;6.10;;;;;;;;;;6274374;22;20676;-84
2022/09/21 06:36:18;;;;;;;55.80;7.32;;;;;;;;;;6275801;22;20176;-83
2022/09/21 06:38:44;;;;;;;61.00;6.57;;;;;;;;;;6275197;22;20155;-85
2022/09/21 06:41:10;;;;;;;41.63;6.85;;;;;;;;;;6277076;22;20816;-84
2022/09/21 06:43:36;;;;;;;27.92;5.30;;;12.30;99.90;;;;;;6296783;22;20194;-84
2022/09/21 06:46:02;;;;;;;53.43;5.27;;;13.20;99.90;;;;;;6285713;22;20220;-85
2022/09/21 06:48:29;;;;;;;42.67;5.13;;;13.60;99.90;;;;;;6281005;22;20215;-87
2022/09/21 06:50:59;;;;;;;18.88;4.38;;;13.80;99.90;;;;;;6283244;22;20255;-86
2022/09/21 06:53:26;;;;;;;17.17;4.90;;;14.20;99.90;;;;;;6278682;22;20183;-85
2022/09/21 06:55:52;;;;;;;15.55;5.78;;;;;;;;;;6281641;22;20136;-85
2022/09/21 06:58:18;;;;;;;28.07;5.20;;;;;;;;;;6278851;22;20209;-86
2022/09/21 07:00:45;;;;;;;9.90;4.30;;;;;;;;;;6276798;22;20825;-84
2022/09/21 07:03:14;;;;;;;11.85;4.93;;;;;;;;;;6279073;22;20362;-88
2022/09/21 07:05:40;;;;;;;10.00;5.43;;;;;;;;;;6279225;22;20160;-87
2022/09/21 07:08:06;;;;;;;5.40;4.57;;;;;;;;;;6279840;22;20205;-86
2022/09/21 07:10:32;;;;;;;7.87;5.10;;;;;;;;;;6279858;22;20390;-84
2022/09/21 07:13:04;;;;;;;9.20;5.90;;;18.10;99.90;;;;;;6276252;22;20358;-85
2022/09/21 07:15:31;;;;;;;9.60;5.30;;;;;;;;;;6290505;22;20936;-84
2022/09/21 07:17:56;;;;;;;7.37;5.67;;;;;;;;;;6296569;22;20398;-85
2022/09/21 07:20:22;;;;;;;6.83;5.70;;;;;;;;;;6290773;22;20406;-86
2022/09/21 07:22:48;;;;;;;5.60;5.10;;;;;;;;;;6283264;22;20369;-87
2022/09/21 07:25:14;;;;;;;7.33;4.87;;;;;;;;;;6285012;22;20383;-86
2022/09/21 07:27:40;;;;;;;7.00;6.27;;;;;;;;;;6283337;22;20374;-86
2022/09/21 07:30:07;;;;;;;7.10;6.40;;;20.00;98.40;;;;;;6282857;22;20386;-87
2022/09/21 07:32:33;;;;;;;8.83;6.07;;;;;;;;;;6281497;22;20379;-87
2022/09/21 07:34:59;;;;;;;8.67;5.97;;;;;;;;;;6276402;22;20432;-87
2022/09/21 07:37:26;;;;;;;6.10;5.50;;;23.50;94.50;;;;;;6280172;22;20425;-86
2022/09/21 07:39:52;;;;;;;17.50;7.27;;;22.10;91.20;;;;;;6278635;22;20401;-86
2022/09/21 07:42:19;;;;;;;18.33;6.70;;;;;;;;;;6277842;22;21147;-87
2022/09/21 07:44:45;;;;;;;6.93;6.23;;;;;;;;;;6278806;22;20462;-85
2022/09/21 07:47:12;;;;;;;11.67;7.40;;;;;;;;;;6276985;22;20466;-87
2022/09/21 07:49:38;;;;;;;11.57;6.90;;;;;;;;;;6277897;22;20635;-87
2022/09/21 07:52:04;;;;;;;17.07;7.83;;;;;;;;;;6276436;22;20907;-87
2022/09/21 07:54:32;;;;;;;11.40;6.60;;;;;;;;;;6272240;22;20378;-87
2022/09/21 07:59:43;;;;;;;15.33;6.20;;;;;;;;;;6277398;22;20451;-85
2022/09/21 08:02:09;;;;;;;9.63;4.97;;;;;;;;;;6295891;22;20368;-85
2022/09/21 08:04:35;;;;;;;15.67;5.90;;;;;;;;;;6297899;22;20370;-86
2022/09/21 08:07:01;;;;;;;13.20;6.70;;;;;;;;;;6287037;22;20430;-87
2022/09/21 08:09:27;;;;;;;11.50;6.17;;;;;;;;;;6295139;22;20370;-85
2022/09/21 08:11:54;;;;;;;22.13;7.93;;;;;;;;;;6293817;22;20641;-86
2022/09/21 08:14:20;;;;;;;13.50;7.00;;;;;;;;;;6284257;22;20788;-86
2022/09/21 08:16:46;;;;;;;7.70;5.40;;;21.30;92.70;;;;;;6283408;22;20421;-86
2022/09/21 08:19:16;;;;;;;9.30;6.40;;;22.50;91.60;;;;;;6282358;22;20383;-87
2022/09/21 08:21:42;;;;;;;9.83;6.57;;;;;;;;;;6283408;22;20371;-86
2022/09/21 08:24:08;;;;;;;14.83;6.70;;;24.30;91.50;;;;;;6281901;22;20363;-86
2022/09/21 08:26:34;;;;;;;7.43;6.47;;;;;;;;;;6281971;22;20435;-86
2022/09/21 08:29:00;;;;;;;7.17;6.50;;;;;;;;;;6278103;22;20378;-87
2022/09/21 08:31:26;;;;;;;8.77;6.17;;;;;;;;;;6273959;22;20441;-86
2022/09/21 08:33:53;;;;;;;9.43;6.30;;;24.10;83.40;;;;;;6279967;22;20424;-85
2022/09/21 08:36:20;;;;;;;9.13;7.00;;;;;;;;;;6276952;22;20416;-87
2022/09/21 08:38:46;;;;;;;8.63;7.10;;;;;;;;;;6278839;22;20941;-87
2022/09/21 08:41:46;;;;;;;10.20;6.93;;;24.80;92.90;;;;;;6279640;22;20368;-88
2022/09/21 08:44:20;;;;;;;8.03;7.23;;;24.30;81.70;;;;;;6280257;22;21100;-87
2022/09/21 08:46:51;;;;;;;10.20;7.10;;;24.50;85.50;;;;;;6277796;22;20389;-86
2022/09/21 08:49:21;;;;;;;8.70;7.20;;;25.10;80.80;;;;;;6278583;22;20490;-87
2022/09/21 08:52:05;;;;;;;9.57;7.47;;;25.00;81.60;;;;;;6279134;22;20380;-88
2022/09/21 08:54:46;;;;;;;11.00;7.20;;;25.50;79.10;;;;;;6280476;22;20401;-86
2022/09/21 08:57:16;;;;;;;7.60;6.57;;;25.20;88.30;;;;;;6280445;22;20422;-87
2022/09/21 08:59:47;;;;;;;8.50;7.30;;;26.00;79.10;;;;;;6277769;22;20460;-86
2022/09/21 09:02:44;;;;;;;10.23;8.03;;;26.50;75.10;;;;;;6279748;22;20372;-87
2022/09/21 09:05:28;;;;;;;8.47;7.20;;;26.70;77.00;;;;;;6264959;22;20381;-86
2022/09/21 09:08:04;;;;;;;9.30;7.40;;;27.60;83.10;;;;;;6280879;22;20412;-86
2022/09/21 09:10:48;;;;;;;7.30;6.60;;;27.40;70.70;;;;;;6282487;22;20388;-86
2022/09/21 09:13:31;;;;;;;8.13;6.90;;;25.00;73.00;;;;;;6277480;22;20366;-87
2022/09/21 09:16:22;;;;;;;7.77;6.33;;;23.80;81.10;;;;;;6290920;22;20388;-85
2022/09/21 09:18:59;;;;;;;9.50;6.80;;;23.20;79.60;;;;;;6297793;22;20370;-87
2022/09/21 09:21:38;;;;;;;9.30;5.77;;;23.60;80.30;;;;;;6289329;22;20355;-86
2022/09/21 09:24:16;;;;;;;5.63;5.00;;;24.50;77.00;;;;;;6275879;22;20440;-86
2022/09/21 09:26:54;;;;;;;6.33;3.73;;;24.70;73.60;;;;;;6273014;22;20371;-86
2022/09/21 09:29:41;;;;;;;5.27;4.07;;;25.10;79.60;;;;;;6274154;22;20362;-87
2022/09/21 09:32:13;;;;;;;3.87;3.53;;;25.50;70.50;;;;;;6269948;22;20408;-86
2022/09/21 09:34:52;;;;;;;6.47;4.00;;;25.20;69.60;;;;;;6267457;22;20732;-86
2022/09/21 09:37:23;;;;;;;5.33;3.90;;;24.80;71.60;;;;;;6270449;22;20425;-86
2022/09/21 09:39:53;;;;;;;5.90;3.53;;;25.00;73.30;;;;;;6266993;22;20445;-86
2022/09/21 09:42:37;;;;;;;5.77;4.10;;;25.40;72.80;;;;;;6271125;22;20406;-86
2022/09/21 09:45:28;;;;;;;4.70;3.50;;;25.60;83.70;;;;;;6272789;22;20362;-87
2022/09/21 09:48:13;;;;;;;6.07;3.80;;;25.30;69.80;;;;;;6269180;22;20481;-83
2022/09/21 09:50:41;;;;;;;4.00;2.00;;;25.40;69.60;;;;;;6270886;22;20361;-79
2022/09/21 09:53:17;;;;;;;4.70;2.43;;;25.90;74.20;;;;;;6268514;22;20379;-81
2022/09/21 09:55:46;;;;;;;5.03;2.90;;;25.00;68.10;;;;;;6272029;22;20441;-80
2022/09/21 09:58:24;;;;;;;3.77;2.13;;;23.60;69.00;;;;;;6270411;22;20507;-80
2022/09/21 10:00:52;;;;;;;2.30;1.60;;;23.60;70.00;;;;;;6269855;22;20714;-79
2022/09/21 10:03:21;;;;;;;3.20;2.00;;;21.90;72.60;;;;;;6268138;22;20473;-84
2022/09/21 10:05:47;;;;;;;4.87;2.60;;;20.20;78.50;;;;;;6271928;22;20377;-82
2022/09/21 10:08:38;;;;;;;4.03;2.00;;;18.80;85.00;;;;;;6265018;22;20867;-82
2022/09/21 10:11:04;;;;;;;4.37;2.57;;;18.00;90.90;;;;;;6271711;22;20396;-82
2022/09/21 10:13:31;;;;;;;2.50;1.90;;;17.60;92.60;;;;;;6270298;22;20437;-80
2022/09/21 10:16:01;;;;;;;4.10;2.50;;;17.20;94.70;;;;;;6272961;22;20781;-81
2022/09/21 10:18:38;;;;;;;5.33;2.60;;;16.80;97.10;;;;;;6272607;22;20378;-80
2022/09/21 10:21:07;;;;;;;3.90;1.30;;;16.80;97.60;;;;;;6271461;22;20678;-80
2022/09/21 10:23:35;;;;;;;4.20;2.10;;;16.50;98.00;;;;;;6264926;22;20378;-80
2022/09/21 10:26:06;;;;;;;4.30;2.93;;;16.60;99.90;;;;;;6276448;22;20374;-81
2022/09/21 10:28:33;;;;;;;5.20;2.57;;;16.60;99.90;;;;;;6274817;22;20359;-79
2022/09/21 10:31:22;;;;;;;6.47;3.13;;;16.60;99.90;;;;;;6272158;22;20361;-80
2022/09/21 10:34:01;;;;;;;5.40;3.10;;;16.60;99.90;;;;;;6270361;22;20370;-80
2022/09/21 10:36:31;;;;;;;5.93;2.67;;;16.50;99.90;;;;;;6271788;22;20931;-82
2022/09/21 10:39:18;;;;;;;6.63;4.50;;;16.50;99.90;;;;;;6272861;22;20374;-81
2022/09/21 10:42:08;;;;;;;4.60;2.87;;;16.40;99.90;;;;;;6271124;22;20381;-80
2022/09/21 10:44:44;;;;;;;6.33;3.37;;;16.40;99.90;;;;;;6249656;22;20864;-81
2022/09/21 10:47:22;;;;;;;7.00;2.30;;;16.60;99.90;;;;;;6270275;22;20441;-78
2022/09/21 10:49:54;;;;;;;5.30;1.40;;;17.00;99.90;;;;;;6268916;22;20382;-80
2022/09/21 10:52:24;;;;;;;3.30;2.00;;;17.10;99.90;;;;;;6268233;22;20420;-79
2022/09/21 10:54:53;;;;;;;3.90;2.60;;;17.20;99.90;;;;;;6270529;22;20733;-81
2022/09/21 10:57:22;;;;;;;4.00;2.30;;;17.30;99.90;;;;;;6266612;22;20929;-78
2022/09/21 10:59:48;;;;;;;4.07;2.20;;;17.40;99.90;;;;;;6267156;22;20383;-78
2022/09/21 11:02:47;;;;;;;5.63;2.20;;;17.40;99.90;;;;;;6269773;22;20370;-80
2022/09/21 11:05:24;;;;;;;3.70;1.80;;;17.40;99.90;;;;;;6202792;22;20230;-80
2022/09/21 11:08:08;;;;;;;3.73;2.60;;;17.40;99.90;;;;;;6270215;22;21250;-80
2022/09/21 11:11:07;;;;;;;2.47;1.90;;;17.40;99.90;;;;;;6272975;22;20363;-82
2022/09/21 11:14:11;;;;;;;7.93;3.03;;;17.40;99.90;;;;;;6270027;22;20378;-79
2022/09/21 11:17:17;;;;;;;4.43;2.17;;;17.20;99.90;;;;;;6145972;23;20471;-81
2022/09/21 11:19:51;;;;;;;3.33;1.83;;;17.60;99.90;;;;;;6271672;22;20371;-79
2022/09/21 11:22:31;;;;;;;6.63;3.30;;;17.70;99.90;;;;;;6271015;22;20424;-83
2022/09/21 11:25:30;;;;;;;5.07;2.77;;;17.50;99.90;;;;;;6272855;22;20355;-81
2022/09/21 11:28:18;;;;;;;5.17;2.13;;;17.60;99.80;;;;;;6269904;22;20420;-80
2022/09/21 11:31:09;;;;;;;5.13;2.20;;;17.60;98.60;;;;;;6272028;22;20889;-81
2022/09/21 11:33:54;;;;;;;3.33;1.50;;;17.80;98.90;;;;;;6270148;22;20374;-80
2022/09/21 11:36:32;;;;;;;10.97;2.13;;;17.80;99.10;;;;;;6263234;22;20468;-82
2022/09/21 11:39:25;;;;;;;3.57;2.00;;;17.90;99.50;;;;;;6268788;22;21114;-80
2022/09/21 11:42:12;;;;;;;2.07;1.40;;;18.20;99.90;;;;;;6271791;22;20563;-80
2022/09/21 11:44:48;;;;;;;3.67;1.40;;;18.30;98.60;;;;;;6272471;22;20378;-78
2022/09/21 11:47:31;;;;;;;2.83;1.73;;;18.40;98.30;;;;;;6269987;22;20759;-80
2022/09/21 11:50:23;;;;;;;2.53;1.43;;;18.60;98.20;;;;;;6271542;22;20355;-80
2022/09/21 11:52:50;;;;;;;3.53;1.30;;;;;;;;;;6270588;22;20809;-80
2022/09/21 11:55:45;;;;;;;3.70;2.10;;;18.80;98.20;;;;;;6273444;22;20367;-81
2022/09/21 11:58:42;;;;;;;4.70;2.20;;;18.80;97.50;;;;;;6271826;22;20433;-82
2022/09/21 12:01:41;;;;;;;3.37;1.13;;;18.80;96.10;;;;;;6219440;22;20385;-79
2022/09/21 12:04:34;;;;;;;2.30;1.27;;;19.00;95.60;;;;;;6268366;22;20373;-80
2022/09/21 12:07:14;;;;;;;2.13;0.90;;;18.60;96.10;;;;;;6270701;22;20544;-81
2022/09/21 12:09:55;;;;;;;3.97;1.23;;;18.60;96.30;;;;;;6274341;22;20362;-82
2022/09/21 12:12:29;;;;;;;1.13;0.93;;;18.80;95.00;;;;;;6269610;22;20374;-79
2022/09/21 12:15:15;;;;;;;1.53;1.00;;;18.60;93.40;;;;;;6270118;22;20373;-81
2022/09/21 12:18:06;;;;;;;3.13;1.53;;;18.60;93.70;;;;;;6271313;22;20911;-81
2022/09/21 12:20:49;;;;;;;2.77;0.90;;;18.60;94.60;;;;;;6271465;22;20351;-80
2022/09/21 12:23:40;;;;;;;1.40;0.90;;;18.40;93.00;;;;;;6271314;22;20362;-78
2022/09/21 12:26:06;;;;;;;2.40;0.90;;;18.10;93.80;;;;;;6276665;22;20390;-80
2022/09/21 12:28:50;;;;;;;1.47;0.80;;;18.20;94.20;;;;;;6272806;22;20371;-79
2022/09/21 12:31:24;;;;;;;1.33;0.70;;;18.30;94.60;;;;;;6273089;22;20362;-79
2022/09/21 12:33:57;;;;;;;2.20;1.10;;;18.60;93.90;;;;;;6274554;22;20354;-82
2022/09/21 12:36:33;;;;;;;2.00;0.90;;;18.90;92.90;;;;;;6273002;22;20429;-81
2022/09/21 12:39:17;;;;;;;1.50;0.70;;;19.30;92.50;;;;;;6269693;22;20374;-80
2022/09/21 12:41:56;;;;;;;1.13;0.90;;;19.40;90.10;;;;;;6270130;22;20363;-82
2022/09/21 12:44:51;;;;;;;4.90;0.80;;;19.40;90.50;;;;;;6270912;22;20366;-79
2022/09/21 12:47:36;;;;;;;1.60;0.73;;;18.70;91.20;;;;;;6271764;22;20411;-80
2022/09/21 12:50:06;;;;;;;0.93;0.80;;;18.30;91.00;;;;;;6272873;22;20833;-79
2022/09/21 12:52:33;;;;;;;4.13;0.80;;;18.00;92.20;;;;;;6270569;22;20450;-80
2022/09/21 12:55:24;;;;;;;0.70;0.70;;;17.80;92.70;;;;;;6272074;22;20367;-80
2022/09/21 12:58:23;;;;;;;1.53;0.63;;;18.10;91.40;;;;;;6270455;22;20426;-80
2022/09/21 13:01:02;;;;;;;0.80;0.77;;;18.30;90.40;;;;;;6208861;22;20493;-81
2022/09/21 13:03:36;;;;;;;2.23;0.77;;;19.20;91.60;;;;;;6270633;22;20371;-81
2022/09/21 13:06:15;;;;;;;3.73;0.77;;;19.30;88.30;;;;;;6271836;22;20720;-80
2022/09/21 13:08:45;;;;;;;4.13;1.10;;;19.30;88.30;;;;;;6271437;22;20432;-78
2022/09/21 13:11:12;;;;;;;1.00;0.60;;;19.30;86.10;;;;;;6272050;22;20347;-80
2022/09/21 13:13:51;;;;;;;5.30;1.23;;;19.00;89.20;;;;;;6270925;22;20904;-80
2022/09/21 13:16:32;;;;;;;0.83;0.83;;;18.40;87.90;;;;;;6270564;22;20355;-80
2022/09/21 13:19:21;;;;;;;1.40;0.70;;;18.20;88.50;;;;;;6271045;22;20377;-80
2022/09/21 13:22:13;;;;;;;3.60;1.00;;;18.10;90.50;;;;;;6269957;22;20385;-82
2022/09/21 13:24:41;;;;;;;0.97;0.80;;;18.00;90.00;;;;;;6267511;22;20949;-77
2022/09/21 13:27:07;;;;;;;2.70;1.13;;;17.90;89.80;;;;;;6270752;22;20452;-81
2022/09/21 13:29:35;;;;;;;3.80;1.10;;;17.80;89.60;;;;;;6267200;22;20417;-83
2022/09/21 13:32:22;;;;;;;1.40;1.00;;;18.10;88.70;;;;;;6272227;22;20374;-82
2022/09/21 13:34:49;;;;;;;3.27;0.83;;;18.30;87.40;;;;;;6272457;22;20378;-77
2022/09/21 13:37:18;;;;;;;1.63;0.90;;;18.40;90.20;;;;;;6270971;22;20426;-79
2022/09/21 13:39:55;;;;;;;4.83;1.10;;;18.50;86.50;;;;;;6271798;22;20419;-79
2022/09/21 13:42:33;;;;;;;3.70;1.23;;;18.60;87.60;;;;;;6270962;22;20366;-83